createdAt,value
2023-04-26T00:00:02.501Z,72.06
2023-04-26T00:01:02.490Z,72.06
2023-04-26T00:02:02.468Z,72.16
2023-04-26T00:03:02.576Z,72.26
2023-04-26T00:04:02.775Z,72.06
2023-04-26T00:05:02.694Z,72.50
2023-04-26T00:06:02.480Z,71.95
2023-04-26T00:07:02.415Z,71.75
2023-04-26T00:08:02.422Z,72.36
2023-04-26T00:09:02.421Z,72.67
2023-04-26T00:10:02.382Z,72.16
2023-04-26T00:11:02.581Z,72.57
2023-04-26T00:12:02.380Z,72.36
2023-04-26T00:13:02.350Z,72.36
2023-04-26T00:14:02.399Z,72.67
2023-04-26T00:15:02.327Z,72.19
2023-04-26T00:16:02.322Z,72.06
2023-04-26T00:17:02.303Z,72.67
2023-04-26T00:18:02.475Z,71.98
2023-04-26T00:19:02.282Z,72.91
2023-04-26T00:20:02.293Z,73.02
2023-04-26T00:21:02.261Z,72.71
2023-04-26T00:22:02.253Z,72.81
2023-04-26T00:23:02.238Z,73.02
2023-04-26T00:24:02.235Z,72.91
2023-04-26T00:25:02.235Z,73.02
2023-04-26T00:26:02.222Z,73.33
2023-04-26T00:27:02.221Z,73.12
2023-04-26T00:28:02.186Z,73.22
2023-04-26T00:29:02.177Z,73.02
2023-04-26T00:30:02.186Z,73.22
2023-04-26T00:31:02.148Z,73.67
2023-04-26T00:32:02.246Z,73.43
2023-04-26T00:33:02.201Z,73.26
2023-04-26T00:34:02.173Z,74.08
2023-04-26T00:35:02.115Z,73.57
2023-04-26T00:36:02.102Z,73.88
2023-04-26T00:37:02.081Z,73.36
2023-04-26T00:38:02.086Z,74.19
2023-04-26T00:39:02.100Z,73.47
2023-04-26T00:40:02.130Z,73.26
2023-04-26T00:41:02.040Z,74.71
2023-04-26T00:42:02.040Z,73.74
2023-04-26T00:43:02.027Z,73.43
2023-04-26T00:44:02.073Z,73.47
2023-04-26T00:45:02.043Z,73.26
2023-04-26T00:46:02.041Z,74.71
2023-04-26T00:47:01.997Z,74.50
2023-04-26T00:48:02.021Z,74.60
2023-04-26T00:49:01.961Z,75.22
2023-04-26T00:50:02.011Z,75.12
2023-04-26T00:51:01.984Z,74.91
2023-04-26T00:52:01.916Z,74.91
2023-04-26T00:53:01.895Z,75.22
2023-04-26T00:54:01.908Z,74.91
2023-04-26T00:55:01.905Z,74.81
2023-04-26T00:56:01.938Z,75.74
2023-04-26T00:57:01.853Z,75.22
2023-04-26T00:58:01.850Z,75.67
2023-04-26T00:59:01.871Z,75.32
2023-04-26T01:00:01.844Z,75.26
2023-04-26T01:01:01.840Z,75.26
2023-04-26T01:02:01.818Z,75.36
2023-04-26T01:03:01.945Z,75.46
2023-04-26T01:04:02.162Z,75.67
2023-04-26T01:05:01.785Z,75.26
2023-04-26T01:06:01.810Z,75.12
2023-04-26T01:07:01.745Z,75.32
2023-04-26T01:08:01.737Z,75.46
2023-04-26T01:09:01.776Z,75.67
2023-04-26T01:10:01.737Z,75.78
2023-04-26T01:11:01.704Z,75.88
2023-04-26T01:12:01.695Z,75.98
2023-04-26T01:13:01.685Z,75.67
2023-04-26T01:14:01.715Z,75.57
2023-04-26T01:15:01.672Z,75.78
2023-04-26T01:16:01.664Z,75.36
2023-04-26T01:17:01.677Z,76.39
2023-04-26T01:18:01.710Z,76.12
2023-04-26T01:19:01.729Z,75.88
2023-04-26T01:20:01.598Z,76.18
2023-04-26T01:21:03.456Z,75.98
2023-04-26T01:22:01.581Z,75.88
2023-04-26T01:23:01.580Z,76.53
2023-04-26T01:24:02.204Z,76.60
2023-04-26T01:25:01.543Z,76.53
2023-04-26T01:26:01.608Z,76.12
2023-04-26T01:27:01.525Z,75.88
2023-04-26T01:28:01.540Z,75.46
2023-04-26T01:29:01.498Z,77.05
2023-04-26T01:30:01.483Z,76.95
2023-04-26T01:31:01.554Z,77.15
2023-04-26T01:32:01.466Z,77.15
2023-04-26T01:33:01.498Z,76.95
2023-04-26T01:34:01.452Z,76.91
2023-04-26T01:35:01.446Z,77.15
2023-04-26T01:36:01.423Z,77.01
2023-04-26T01:37:01.424Z,76.84
2023-04-26T01:38:01.408Z,76.95
2023-04-26T01:39:01.390Z,76.64
2023-04-26T01:40:01.406Z,76.64
2023-04-26T01:41:01.402Z,76.74
2023-04-26T01:42:01.353Z,76.95
2023-04-26T01:43:01.341Z,77.05
2023-04-26T01:44:01.339Z,77.36
2023-04-26T01:45:01.391Z,77.47
2023-04-26T01:46:01.351Z,77.47
2023-04-26T01:47:01.333Z,77.36
2023-04-26T01:48:01.315Z,77.26
2023-04-26T01:49:01.278Z,77.15
2023-04-26T01:50:02.196Z,77.19
2023-04-26T01:51:01.289Z,77.67
2023-04-26T01:52:01.297Z,77.39
2023-04-26T01:53:01.238Z,77.47
2023-04-26T01:54:01.220Z,77.47
2023-04-26T01:55:01.211Z,77.60
2023-04-26T01:56:01.209Z,77.81
2023-04-26T01:57:01.704Z,77.81
2023-04-26T01:58:01.175Z,77.91
2023-04-26T01:59:01.162Z,77.81
2023-04-26T02:00:01.153Z,77.91
2023-04-26T02:01:01.159Z,77.70
2023-04-26T02:02:01.289Z,77.47
2023-04-26T02:03:01.217Z,78.02
2023-04-26T02:04:01.115Z,78.12
2023-04-26T02:05:01.150Z,78.33
2023-04-26T02:06:01.129Z,78.29
2023-04-26T02:07:01.087Z,78.02
2023-04-26T02:08:01.073Z,78.33
2023-04-26T02:09:01.058Z,78.12
2023-04-26T02:10:01.055Z,78.33
2023-04-26T02:11:01.057Z,78.12
2023-04-26T02:12:01.022Z,78.43
2023-04-26T02:13:01.027Z,79.16
2023-04-26T02:14:01.007Z,78.85
2023-04-26T02:15:00.997Z,78.64
2023-04-26T02:16:01.028Z,78.74
2023-04-26T02:17:00.970Z,79.05
2023-04-26T02:18:01.110Z,78.95
2023-04-26T02:19:00.973Z,78.53
2023-04-26T02:20:00.939Z,79.16
2023-04-26T02:21:00.948Z,79.05
2023-04-26T02:22:00.915Z,78.64
2023-04-26T02:23:00.908Z,78.74
2023-04-26T02:24:00.905Z,78.85
2023-04-26T02:25:00.923Z,79.19
2023-04-26T02:26:00.886Z,79.30
2023-04-26T02:27:00.863Z,79.50
2023-04-26T02:28:00.877Z,79.36
2023-04-26T02:29:00.852Z,79.36
2023-04-26T02:30:00.851Z,79.50
2023-04-26T02:31:00.855Z,79.47
2023-04-26T02:32:01.150Z,79.36
2023-04-26T02:33:00.885Z,79.50
2023-04-26T02:34:00.797Z,79.50
2023-04-26T02:35:00.799Z,79.91
2023-04-26T02:36:00.785Z,80.08
2023-04-26T02:37:00.753Z,79.81
2023-04-26T02:38:00.771Z,80.12
2023-04-26T02:39:00.762Z,80.40
2023-04-26T02:40:00.780Z,80.22
2023-04-26T02:41:00.724Z,80.43
2023-04-26T02:42:00.701Z,80.02
2023-04-26T02:43:00.686Z,80.43
2023-04-26T02:44:00.672Z,80.54
2023-04-26T02:45:00.692Z,80.43
2023-04-26T02:46:00.673Z,80.54
2023-04-26T02:47:00.725Z,80.54
2023-04-26T02:48:00.710Z,80.64
2023-04-26T02:49:00.630Z,81.16
2023-04-26T02:50:00.671Z,81.16
2023-04-26T02:51:00.654Z,81.05
2023-04-26T02:52:00.590Z,81.05
2023-04-26T02:53:00.585Z,81.26
2023-04-26T02:54:00.579Z,80.64
2023-04-26T02:55:00.603Z,81.16
2023-04-26T02:56:00.545Z,81.16
2023-04-26T02:57:00.542Z,80.85
2023-04-26T02:58:00.533Z,81.16
2023-04-26T02:59:00.511Z,81.05
2023-04-26T03:00:00.551Z,80.85
2023-04-26T03:01:01.584Z,80.64
2023-04-26T03:02:00.489Z,81.05
2023-04-26T03:03:00.670Z,81.16
2023-04-26T03:04:00.599Z,81.05
2023-04-26T03:05:00.648Z,81.05
2023-04-26T03:06:00.428Z,80.99
2023-04-26T03:07:00.455Z,81.40
2023-04-26T03:08:00.420Z,81.05
2023-04-26T03:09:00.421Z,81.30
2023-04-26T03:10:00.407Z,81.20
2023-04-26T03:11:00.382Z,81.30
2023-04-26T03:12:00.375Z,81.51
2023-04-26T03:13:00.365Z,81.61
2023-04-26T03:14:00.383Z,81.40
2023-04-26T03:15:00.355Z,81.71
2023-04-26T03:16:00.334Z,81.51
2023-04-26T03:17:00.428Z,81.30
2023-04-26T03:18:00.379Z,81.51
2023-04-26T03:19:00.333Z,81.61
2023-04-26T03:20:02.526Z,81.71
2023-04-26T03:21:00.271Z,81.30
2023-04-26T03:22:00.272Z,81.61
2023-04-26T03:23:00.291Z,81.61
2023-04-26T03:24:00.247Z,82.03
2023-04-26T03:25:00.258Z,82.03
2023-04-26T03:26:00.230Z,81.82
2023-04-26T03:27:00.248Z,81.92
2023-04-26T03:28:00.209Z,81.82
2023-04-26T03:29:00.201Z,81.78
2023-04-26T03:30:00.199Z,81.92
2023-04-26T03:31:00.189Z,82.03
2023-04-26T03:32:00.300Z,81.82
2023-04-26T03:33:00.240Z,81.82
2023-04-26T03:34:00.138Z,81.78
2023-04-26T03:35:00.172Z,81.99
2023-04-26T03:36:00.148Z,81.99
2023-04-26T03:37:00.176Z,81.99
2023-04-26T03:38:00.150Z,81.78
2023-04-26T03:39:00.133Z,81.78
2023-04-26T03:40:00.199Z,82.03
2023-04-26T03:41:00.063Z,82.09
2023-04-26T03:42:00.082Z,82.34
2023-04-26T03:43:00.137Z,82.03
2023-04-26T03:44:00.096Z,82.34
2023-04-26T03:45:00.041Z,82.23
2023-04-26T03:46:00.059Z,82.34
2023-04-26T03:46:59.994Z,82.34
2023-04-26T03:48:00.061Z,82.44
2023-04-26T03:48:59.995Z,82.34
2023-04-26T03:50:00.012Z,82.75
2023-04-26T03:50:59.955Z,82.75
2023-04-26T03:51:59.977Z,82.54
2023-04-26T03:52:59.935Z,82.54
2023-04-26T03:53:59.916Z,82.65
2023-04-26T03:54:59.930Z,82.75
2023-04-26T03:55:59.905Z,82.44
2023-04-26T03:57:00.683Z,82.65
2023-04-26T03:57:59.968Z,82.65
2023-04-26T03:58:59.877Z,82.65
2023-04-26T03:59:59.867Z,82.75
2023-04-26T04:00:59.853Z,82.65
2023-04-26T04:01:59.873Z,82.89
2023-04-26T04:02:59.963Z,82.75
2023-04-26T04:04:00.078Z,82.86
2023-04-26T04:04:59.896Z,82.89
2023-04-26T04:05:59.790Z,82.89
2023-04-26T04:06:59.800Z,83.06
2023-04-26T04:07:59.780Z,82.75
2023-04-26T04:08:59.883Z,82.75
2023-04-26T04:09:59.744Z,82.75
2023-04-26T04:11:00.870Z,82.86
2023-04-26T04:11:59.722Z,82.86
2023-04-26T04:12:59.721Z,83.06
2023-04-26T04:13:59.703Z,82.95
2023-04-26T04:14:59.688Z,82.95
2023-04-26T04:16:00.146Z,82.65
2023-04-26T04:16:59.722Z,82.75
2023-04-26T04:17:59.753Z,82.65
2023-04-26T04:18:59.644Z,82.75
2023-04-26T04:19:59.688Z,82.65
2023-04-26T04:20:59.623Z,82.65
2023-04-26T04:21:59.608Z,82.75
2023-04-26T04:22:59.656Z,82.54
2023-04-26T04:23:59.614Z,82.44
2023-04-26T04:24:59.647Z,82.34
2023-04-26T04:25:59.579Z,82.13
2023-04-26T04:26:59.594Z,82.44
2023-04-26T04:27:59.548Z,82.23
2023-04-26T04:28:59.565Z,82.19
2023-04-26T04:29:59.528Z,81.68
2023-04-26T04:30:59.533Z,82.09
2023-04-26T04:31:59.517Z,81.99
2023-04-26T04:32:59.552Z,82.09
2023-04-26T04:33:59.485Z,81.92
2023-04-26T04:34:59.475Z,82.03
2023-04-26T04:35:59.502Z,81.88
2023-04-26T04:36:59.496Z,81.78
2023-04-26T04:37:59.432Z,81.99
2023-04-26T04:38:59.438Z,81.88
2023-04-26T04:39:59.433Z,81.99
2023-04-26T04:40:59.434Z,81.78
2023-04-26T04:41:59.395Z,81.78
2023-04-26T04:42:59.421Z,81.57
2023-04-26T04:43:59.397Z,81.26
2023-04-26T04:44:59.365Z,81.47
2023-04-26T04:45:59.395Z,81.37
2023-04-26T04:46:59.519Z,81.57
2023-04-26T04:47:59.342Z,81.43
2023-04-26T04:48:59.363Z,81.54
2023-04-26T04:49:59.308Z,81.26
2023-04-26T04:50:59.301Z,81.23
2023-04-26T04:51:59.284Z,81.26
2023-04-26T04:52:59.304Z,81.02
2023-04-26T04:53:59.272Z,80.54
2023-04-26T04:54:59.254Z,80.64
2023-04-26T04:55:59.257Z,80.60
2023-04-26T04:56:59.234Z,80.60
2023-04-26T04:57:59.228Z,80.50
2023-04-26T04:58:59.306Z,80.29
2023-04-26T04:59:59.195Z,80.29
2023-04-26T05:00:59.217Z,80.50
2023-04-26T05:01:59.207Z,80.60
2023-04-26T05:02:59.251Z,79.98
2023-04-26T05:03:59.407Z,80.19
2023-04-26T05:04:59.184Z,80.50
2023-04-26T05:05:59.182Z,80.40
2023-04-26T05:06:59.148Z,80.15
2023-04-26T05:07:59.210Z,80.19
2023-04-26T05:08:59.109Z,79.98
2023-04-26T05:09:59.089Z,79.98
2023-04-26T05:10:59.085Z,79.43
2023-04-26T05:11:59.091Z,79.57
2023-04-26T05:12:59.054Z,79.33
2023-04-26T05:13:59.329Z,79.12
2023-04-26T05:14:59.083Z,79.67
2023-04-26T05:15:59.074Z,79.02
2023-04-26T05:16:59.016Z,78.91
2023-04-26T05:17:59.044Z,78.50
2023-04-26T05:18:59.003Z,78.70
2023-04-26T05:19:58.999Z,79.22
2023-04-26T05:20:58.976Z,79.02
2023-04-26T05:21:58.998Z,79.70
2023-04-26T05:22:58.951Z,78.67
2023-04-26T05:23:58.946Z,78.98
2023-04-26T05:24:58.951Z,79.19
2023-04-26T05:25:58.916Z,78.46
2023-04-26T05:26:58.912Z,78.15
2023-04-26T05:27:58.920Z,78.36
2023-04-26T05:28:58.916Z,78.36
2023-04-26T05:29:58.878Z,78.56
2023-04-26T05:30:58.883Z,77.91
2023-04-26T05:31:58.891Z,77.29
2023-04-26T05:32:58.898Z,77.81
2023-04-26T05:33:58.831Z,77.64
2023-04-26T05:34:58.824Z,77.53
2023-04-26T05:35:58.820Z,77.81
2023-04-26T05:36:58.817Z,77.29
2023-04-26T05:37:58.800Z,77.60
2023-04-26T05:38:58.792Z,77.04
2023-04-26T05:39:58.767Z,77.04
2023-04-26T05:40:58.785Z,76.73
2023-04-26T05:41:58.749Z,76.64
2023-04-26T05:42:58.728Z,76.64
2023-04-26T05:43:58.723Z,77.04
2023-04-26T05:44:58.733Z,75.36
2023-04-26T05:45:58.799Z,76.18
2023-04-26T05:46:58.700Z,75.57
2023-04-26T05:47:58.697Z,75.84
2023-04-26T05:48:58.676Z,75.74
2023-04-26T05:49:58.661Z,75.53
2023-04-26T05:50:58.655Z,74.77
2023-04-26T05:51:58.626Z,75.09
2023-04-26T05:52:58.622Z,75.09
2023-04-26T05:53:58.603Z,73.95
2023-04-26T05:54:58.601Z,73.91
2023-04-26T05:55:58.602Z,74.05
2023-04-26T05:56:59.233Z,73.50
2023-04-26T05:57:58.602Z,73.19
2023-04-26T05:58:58.552Z,72.85
2023-04-26T05:59:58.538Z,73.36
2023-04-26T06:00:58.539Z,72.75
2023-04-26T06:01:58.588Z,72.30
2023-04-26T06:02:58.691Z,72.09
2023-04-26T06:04:00.613Z,71.99
2023-04-26T06:04:58.687Z,71.55
2023-04-26T06:05:58.482Z,71.20
2023-04-26T06:06:58.458Z,70.69
2023-04-26T06:07:58.444Z,70.69
2023-04-26T06:08:58.447Z,69.84
2023-04-26T06:09:58.507Z,70.97
2023-04-26T06:10:58.432Z,69.90
2023-04-26T06:11:58.411Z,69.90
2023-04-26T06:12:58.416Z,69.70
2023-04-26T06:13:58.395Z,69.26
2023-04-26T06:14:58.414Z,69.12
2023-04-26T06:15:58.372Z,68.48
2023-04-26T06:16:58.423Z,67.32
2023-04-26T06:17:58.424Z,66.80
2023-04-26T06:18:58.342Z,66.05
2023-04-26T06:19:58.343Z,65.64
2023-04-26T06:20:58.314Z,64.69
2023-04-26T06:21:58.303Z,64.28
2023-04-26T06:22:58.284Z,63.73
2023-04-26T06:23:58.297Z,63.22
2023-04-26T06:24:58.281Z,62.78
2023-04-26T06:25:58.250Z,62.58
2023-04-26T06:26:58.253Z,62.27
2023-04-26T06:27:58.228Z,62.68
2023-04-26T06:28:58.230Z,61.70
2023-04-26T06:29:58.227Z,60.96
2023-04-26T06:30:58.341Z,59.91
2023-04-26T06:31:58.184Z,59.44
2023-04-26T06:32:58.191Z,57.75
2023-04-26T06:33:58.172Z,57.52
2023-04-26T06:34:58.214Z,56.81
2023-04-26T06:35:58.218Z,56.45
2023-04-26T06:36:58.138Z,55.51
2023-04-26T06:37:58.116Z,54.64
2023-04-26T06:38:58.399Z,53.17
2023-04-26T06:39:58.708Z,52.03
2023-04-26T06:40:58.108Z,51.59
2023-04-26T06:41:58.083Z,50.43
2023-04-26T06:42:58.075Z,50.10
2023-04-26T06:43:58.084Z,48.96
2023-04-26T06:44:58.054Z,48.86
2023-04-26T06:45:58.046Z,48.61
2023-04-26T06:46:58.032Z,47.98
2023-04-26T06:47:58.072Z,47.38
2023-04-26T06:48:58.028Z,46.92
2023-04-26T06:49:57.989Z,46.68
2023-04-26T06:50:58.013Z,45.95
2023-04-26T06:51:57.984Z,44.62
2023-04-26T06:52:58.141Z,43.77
2023-04-26T06:53:57.950Z,43.34
2023-04-26T06:54:58.002Z,42.41
2023-04-26T06:55:57.928Z,42.68
2023-04-26T06:56:59.390Z,41.77
2023-04-26T06:57:57.919Z,41.15
2023-04-26T06:58:57.891Z,40.62
2023-04-26T06:59:57.884Z,39.78
2023-04-26T07:00:58.284Z,39.47
2023-04-26T07:01:57.885Z,38.12
2023-04-26T07:02:58.111Z,37.59
2023-04-26T07:03:58.318Z,36.65
2023-04-26T07:04:57.967Z,36.57
2023-04-26T07:05:57.807Z,38.24
2023-04-26T07:06:57.965Z,38.68
2023-04-26T07:07:57.812Z,38.90
2023-04-26T07:08:58.881Z,39.86
2023-04-26T07:09:57.767Z,40.60
2023-04-26T07:10:57.968Z,39.90
2023-04-26T07:11:57.740Z,38.12
2023-04-26T07:12:57.812Z,37.25
2023-04-26T07:13:57.777Z,35.11
2023-04-26T07:14:58.032Z,34.89
2023-04-26T07:15:57.712Z,34.48
2023-04-26T07:16:57.686Z,33.95
2023-04-26T07:17:57.698Z,33.12
2023-04-26T07:18:57.686Z,32.09
2023-04-26T07:19:57.673Z,31.57
2023-04-26T07:20:57.768Z,31.15
2023-04-26T07:21:57.651Z,31.24
2023-04-26T07:22:57.856Z,31.45
2023-04-26T07:23:57.626Z,31.16
2023-04-26T07:24:57.599Z,32.15
2023-04-26T07:25:57.917Z,34.58
2023-04-26T07:26:57.796Z,36.02
2023-04-26T07:27:57.572Z,36.47
2023-04-26T07:28:57.568Z,39.15
2023-04-26T07:29:57.558Z,39.50
2023-04-26T07:30:57.534Z,37.79
2023-04-26T07:31:57.516Z,36.07
2023-04-26T07:32:57.707Z,36.18
2023-04-26T07:33:57.571Z,34.41
2023-04-26T07:34:57.484Z,33.96
2023-04-26T07:35:57.495Z,32.50
2023-04-26T07:36:57.480Z,31.86
2023-04-26T07:37:57.458Z,30.65
2023-04-26T07:38:57.472Z,31.27
2023-04-26T07:39:57.430Z,31.51
2023-04-26T07:40:57.417Z,32.12
2023-04-26T07:41:57.427Z,34.64
2023-04-26T07:42:57.418Z,36.03
2023-04-26T07:43:57.388Z,33.73
2023-04-26T07:44:57.379Z,31.95
2023-04-26T07:45:57.363Z,31.40
2023-04-26T07:46:57.353Z,30.98
2023-04-26T07:47:57.392Z,30.08
2023-04-26T07:48:57.334Z,30.66
2023-04-26T07:49:57.328Z,31.39
2023-04-26T07:50:57.336Z,32.32
2023-04-26T07:51:57.300Z,34.94
2023-04-26T07:52:57.287Z,37.49
2023-04-26T07:53:57.353Z,36.21
2023-04-26T07:54:57.288Z,36.07
2023-04-26T07:55:57.293Z,37.91
2023-04-26T07:56:57.258Z,37.96
2023-04-26T07:57:57.230Z,39.85
2023-04-26T07:58:58.239Z,41.71
2023-04-26T07:59:57.229Z,42.35
2023-04-26T08:00:57.209Z,41.93
2023-04-26T08:01:57.209Z,41.66
2023-04-26T08:02:57.458Z,42.74
2023-04-26T08:03:57.753Z,44.48
2023-04-26T08:04:57.397Z,43.14
2023-04-26T08:05:57.275Z,42.17
2023-04-26T08:06:57.195Z,42.66
2023-04-26T08:07:57.221Z,42.05
2023-04-26T08:08:57.153Z,41.66
2023-04-26T08:09:57.223Z,41.77
2023-04-26T08:10:57.208Z,39.21
2023-04-26T08:11:57.141Z,40.90
2023-04-26T08:12:57.062Z,42.69
2023-04-26T08:13:57.050Z,43.87
2023-04-26T08:14:57.055Z,45.51
2023-04-26T08:15:57.029Z,46.86
2023-04-26T08:16:57.073Z,46.37
2023-04-26T08:17:57.058Z,47.30
2023-04-26T08:18:57.013Z,47.96
2023-04-26T08:19:56.988Z,48.19
2023-04-26T08:20:56.972Z,49.55
2023-04-26T08:21:56.964Z,49.29
2023-04-26T08:22:56.953Z,50.87
2023-04-26T08:23:56.950Z,51.40
2023-04-26T08:24:56.974Z,52.45
2023-04-26T08:25:56.916Z,53.49
2023-04-26T08:26:56.963Z,53.83
2023-04-26T08:27:56.894Z,54.21
2023-04-26T08:28:56.888Z,53.57
2023-04-26T08:29:57.036Z,53.64
2023-04-26T08:30:56.886Z,52.63
2023-04-26T08:31:56.860Z,49.58
2023-04-26T08:32:56.931Z,47.81
2023-04-26T08:33:56.844Z,46.84
2023-04-26T08:34:56.855Z,41.51
2023-04-26T08:35:56.807Z,38.53
2023-04-26T08:36:56.839Z,35.71
2023-04-26T08:37:56.790Z,34.76
2023-04-26T08:38:56.794Z,33.81
2023-04-26T08:39:56.776Z,33.15
2023-04-26T08:40:56.758Z,31.32
2023-04-26T08:41:56.780Z,31.30
2023-04-26T08:42:56.764Z,31.25
2023-04-26T08:43:56.758Z,33.64
2023-04-26T08:44:56.758Z,34.11
2023-04-26T08:45:56.726Z,35.05
2023-04-26T08:46:56.688Z,36.29
2023-04-26T08:47:56.743Z,37.88
2023-04-26T08:48:56.678Z,39.99
2023-04-26T08:49:56.698Z,42.09
2023-04-26T08:50:56.643Z,45.92
2023-04-26T08:51:56.671Z,48.32
2023-04-26T08:52:56.629Z,50.87
2023-04-26T08:53:56.612Z,53.80
2023-04-26T08:54:56.624Z,54.85
2023-04-26T08:55:56.619Z,54.72
2023-04-26T08:56:56.574Z,51.51
2023-04-26T08:57:56.579Z,48.82
2023-04-26T08:58:56.601Z,45.06
2023-04-26T08:59:56.572Z,39.16
2023-04-26T09:00:56.535Z,37.37
2023-04-26T09:01:56.566Z,34.28
2023-04-26T09:02:56.676Z,33.31
2023-04-26T09:03:57.184Z,32.44
2023-04-26T09:04:56.646Z,31.48
2023-04-26T09:05:56.478Z,29.98
2023-04-26T09:06:56.486Z,29.02
2023-04-26T09:07:56.460Z,29.33
2023-04-26T09:08:56.444Z,30.27
2023-04-26T09:09:56.477Z,31.12
2023-04-26T09:12:12.170Z,34.21
2023-04-26T09:13:12.203Z,36.24
2023-04-26T09:14:12.277Z,37.82
2023-04-26T09:15:12.159Z,39.26
2023-04-26T09:16:12.155Z,41.12
2023-04-26T09:17:12.118Z,40.84
2023-04-26T09:18:12.114Z,41.97
2023-04-26T09:19:12.128Z,43.18
2023-04-26T09:20:12.083Z,43.00
2023-04-26T09:21:12.083Z,43.30
2023-04-26T09:22:12.082Z,43.12
2023-04-26T09:23:12.050Z,44.06
2023-04-26T09:24:12.269Z,43.55
2023-04-26T09:25:12.016Z,43.77
2023-04-26T09:26:12.046Z,44.20
2023-04-26T09:27:12.002Z,44.50
2023-04-26T09:28:11.989Z,43.91
2023-04-26T09:29:11.979Z,44.34
2023-04-26T09:30:12.084Z,45.28
2023-04-26T09:31:12.033Z,46.21
2023-04-26T09:32:11.952Z,45.29
2023-04-26T09:33:11.974Z,44.46
2023-04-26T09:34:11.932Z,43.49
2023-04-26T09:35:11.915Z,41.89
2023-04-26T09:36:12.378Z,40.11
2023-04-26T09:37:11.888Z,38.81
2023-04-26T09:38:13.314Z,37.66
2023-04-26T09:39:11.865Z,36.77
2023-04-26T09:40:11.854Z,37.92
2023-04-26T09:41:11.881Z,38.62
2023-04-26T09:42:11.855Z,38.64
2023-04-26T09:43:11.889Z,38.37
2023-04-26T09:44:11.809Z,39.70
2023-04-26T09:45:11.804Z,41.18
2023-04-26T09:46:11.956Z,41.40
2023-04-26T09:47:11.932Z,42.76
2023-04-26T09:48:11.778Z,43.06
2023-04-26T09:49:11.768Z,43.59
2023-04-26T09:50:11.749Z,43.59
2023-04-26T09:51:11.777Z,43.18
2023-04-26T09:52:11.727Z,41.64
2023-04-26T09:53:11.719Z,40.52
2023-04-26T09:54:11.703Z,37.18
2023-04-26T09:55:19.071Z,36.39
2023-04-26T09:56:12.699Z,37.63
2023-04-26T09:57:11.680Z,38.68
2023-04-26T09:58:11.657Z,39.22
2023-04-26T09:59:11.650Z,40.47
2023-04-26T10:00:11.683Z,41.20
2023-04-26T10:01:11.873Z,41.22
2023-04-26T10:02:12.074Z,41.64
2023-04-26T10:03:11.735Z,40.30
2023-04-26T10:04:12.492Z,36.54
2023-04-26T10:05:11.615Z,34.46
2023-04-26T10:06:11.570Z,33.27
2023-04-26T10:07:11.552Z,34.22
2023-04-26T10:08:11.548Z,35.08
2023-04-26T10:09:11.543Z,36.84
2023-04-26T10:10:11.561Z,37.99
2023-04-26T10:11:11.610Z,38.93
2023-04-26T10:12:11.500Z,39.15
2023-04-26T10:13:11.488Z,39.88
2023-04-26T10:14:11.476Z,40.53
2023-04-26T10:15:11.499Z,41.05
2023-04-26T10:16:11.502Z,42.19
2023-04-26T10:17:11.448Z,41.60
2023-04-26T10:18:11.619Z,42.43
2023-04-26T10:19:11.441Z,43.47
2023-04-26T10:20:11.422Z,43.16
2023-04-26T10:21:11.406Z,42.61
2023-04-26T10:22:11.392Z,40.95
2023-04-26T10:23:11.378Z,40.27
2023-04-26T10:24:11.389Z,38.35
2023-04-26T10:25:11.355Z,37.13
2023-04-26T10:26:11.345Z,35.90
2023-04-26T10:27:11.357Z,35.63
2023-04-26T10:28:11.332Z,34.49
2023-04-26T10:29:11.312Z,35.39
2023-04-26T10:30:11.324Z,35.03
2023-04-26T10:31:11.292Z,35.77
2023-04-26T10:32:11.291Z,36.71
2023-04-26T10:33:11.307Z,37.24
2023-04-26T10:34:11.979Z,37.18
2023-04-26T10:35:11.866Z,38.33
2023-04-26T10:36:11.255Z,38.35
2023-04-26T10:37:11.263Z,39.60
2023-04-26T10:38:11.211Z,39.72
2023-04-26T10:39:11.222Z,40.65
2023-04-26T10:40:11.201Z,40.18
2023-04-26T10:41:11.203Z,41.84
2023-04-26T10:42:11.187Z,43.69
2023-04-26T10:43:11.183Z,45.54
2023-04-26T10:44:11.164Z,47.70
2023-04-26T10:45:11.144Z,47.82
2023-04-26T10:46:11.144Z,48.43
2023-04-26T10:47:11.125Z,48.25
2023-04-26T10:48:11.104Z,48.89
2023-04-26T10:49:11.090Z,48.68
2023-04-26T10:50:11.326Z,48.60
2023-04-26T10:51:11.085Z,49.21
2023-04-26T10:52:11.062Z,49.95
2023-04-26T10:53:11.054Z,50.87
2023-04-26T10:54:11.038Z,50.77
2023-04-26T10:55:11.049Z,49.57
2023-04-26T10:56:11.015Z,50.08
2023-04-26T10:57:11.000Z,48.85
2023-04-26T10:58:11.874Z,49.37
2023-04-26T10:59:28.425Z,50.05
2023-04-26T11:00:11.966Z,50.56
2023-04-26T11:01:11.027Z,49.11
2023-04-26T11:02:10.963Z,49.19
2023-04-26T11:03:11.011Z,49.07
2023-04-26T11:04:10.985Z,47.50
2023-04-26T11:05:10.928Z,46.19
2023-04-26T11:06:10.928Z,43.93
2023-04-26T11:07:10.890Z,42.17
2023-04-26T11:08:11.838Z,40.92
2023-04-26T11:09:10.873Z,40.92
2023-04-26T11:10:10.890Z,41.14
2023-04-26T11:11:10.861Z,40.94
2023-04-26T11:12:10.856Z,40.13
2023-04-26T11:13:10.820Z,40.27
2023-04-26T11:14:10.852Z,41.24
2023-04-26T11:15:10.801Z,40.97
2023-04-26T11:16:10.856Z,41.70
2023-04-26T11:17:10.920Z,41.64
2023-04-26T11:18:10.770Z,42.66
2023-04-26T11:19:10.781Z,43.29
2023-04-26T11:20:10.746Z,44.02
2023-04-26T11:21:10.746Z,43.91
2023-04-26T11:22:10.758Z,44.12
2023-04-26T11:23:10.739Z,43.63
2023-04-26T11:24:10.704Z,44.34
2023-04-26T11:25:10.696Z,44.04
2023-04-26T11:26:10.726Z,43.53
2023-04-26T11:27:10.971Z,44.26
2023-04-26T11:28:10.659Z,44.26
2023-04-26T11:29:10.657Z,44.06
2023-04-26T11:30:10.716Z,43.65
2023-04-26T11:31:10.676Z,43.65
2023-04-26T11:32:10.656Z,43.93
2023-04-26T11:33:10.626Z,43.51
2023-04-26T11:34:10.596Z,43.90
2023-04-26T11:35:10.584Z,42.94
2023-04-26T11:36:10.588Z,41.11
2023-04-26T11:37:10.555Z,39.87
2023-04-26T11:38:10.568Z,39.57
2023-04-26T11:39:13.667Z,39.53
2023-04-26T11:40:10.525Z,39.01
2023-04-26T11:41:10.559Z,38.72
2023-04-26T11:42:10.498Z,40.04
2023-04-26T11:43:10.491Z,39.73
2023-04-26T11:44:10.496Z,39.62
2023-04-26T11:45:10.489Z,39.70
2023-04-26T11:46:10.587Z,39.70
2023-04-26T11:47:10.531Z,39.31
2023-04-26T11:48:10.537Z,39.11
2023-04-26T11:49:10.459Z,39.11
2023-04-26T11:50:10.417Z,39.01
2023-04-26T11:51:10.413Z,39.62
2023-04-26T11:52:10.405Z,39.84
2023-04-26T11:53:10.418Z,40.26
2023-04-26T11:54:10.530Z,41.30
2023-04-26T11:55:10.365Z,40.50
2023-04-26T11:56:10.350Z,41.33
2023-04-26T11:57:10.352Z,41.05
2023-04-26T11:58:10.534Z,42.49
2023-04-26T11:59:10.321Z,42.51
2023-04-26T12:00:10.323Z,42.94
2023-04-26T12:01:10.309Z,43.37
2023-04-26T12:02:10.355Z,44.20
2023-04-26T12:03:10.553Z,45.32
2023-04-26T12:04:10.482Z,45.73
2023-04-26T12:05:10.376Z,45.42
2023-04-26T12:06:10.256Z,45.85
2023-04-26T12:07:10.249Z,46.24
2023-04-26T12:08:10.235Z,45.32
2023-04-26T12:09:10.208Z,46.03
2023-04-26T12:10:11.027Z,45.73
2023-04-26T12:11:10.188Z,43.98
2023-04-26T12:12:10.246Z,42.55
2023-04-26T12:13:10.160Z,42.33
2023-04-26T12:14:10.396Z,41.07
2023-04-26T12:15:10.158Z,40.70
2023-04-26T12:16:22.487Z,38.84
2023-04-26T12:17:11.190Z,38.21
2023-04-26T12:18:10.714Z,38.40
2023-04-26T12:19:10.207Z,38.26
2023-04-26T12:20:10.107Z,37.54
2023-04-26T12:21:10.090Z,37.30
2023-04-26T12:22:10.088Z,36.39
2023-04-26T12:23:10.080Z,36.21
2023-04-26T12:24:10.089Z,36.21
2023-04-26T12:25:10.086Z,37.52
2023-04-26T12:26:11.092Z,37.01
2023-04-26T12:27:10.019Z,37.01
2023-04-26T12:28:10.267Z,36.93
2023-04-26T12:29:09.999Z,37.86
2023-04-26T12:30:09.998Z,38.87
2023-04-26T12:31:10.953Z,38.89
2023-04-26T12:32:10.007Z,38.81
2023-04-26T12:34:10.953Z,39.94
2023-04-26T12:35:09.985Z,40.75
2023-04-26T12:36:09.914Z,41.17
2023-04-26T12:37:09.902Z,40.99
2023-04-26T12:38:10.106Z,41.72
2023-04-26T12:39:09.880Z,41.54
2023-04-26T12:40:09.867Z,41.44
2023-04-26T12:41:09.868Z,42.39
2023-04-26T12:42:09.903Z,42.59
2023-04-26T12:43:09.834Z,43.10
2023-04-26T12:44:09.941Z,43.91
2023-04-26T12:45:09.820Z,43.93
2023-04-26T12:46:09.912Z,44.26
2023-04-26T12:47:09.789Z,44.26
2023-04-26T12:48:09.912Z,44.06
2023-04-26T12:49:09.828Z,44.46
2023-04-26T12:50:10.108Z,45.79
2023-04-26T12:51:09.797Z,45.81
2023-04-26T12:52:09.823Z,46.91
2023-04-26T12:53:09.739Z,46.72
2023-04-26T12:54:09.768Z,46.60